sensor_id;sensor_type;location;lat;lon;timestamp;P1;durP1;ratioP1;P2;durP2;ratioP2
79697;SDS011;69168;42.708;23.286;2023-10-09T00:01:03;5.18;;;1.80;;
79697;SDS011;69168;42.708;23.286;2023-10-09T00:03:30;5.95;;;2.35;;
79697;SDS011;69168;42.708;23.286;2023-10-09T00:05:56;7.97;;;1.90;;
79697;SDS011;69168;42.708;23.286;2023-10-09T00:08:22;5.85;;;1.77;;
79697;SDS011;69168;42.708;23.286;2023-10-09T00:10:58;8.80;;;2.13;;
79697;SDS011;69168;42.708;23.286;2023-10-09T00:13:38;8.20;;;2.05;;
79697;SDS011;69168;42.708;23.286;2023-10-09T00:16:13;4.88;;;1.80;;
79697;SDS011;69168;42.708;23.286;2023-10-09T00:18:48;4.72;;;1.55;;
79697;SDS011;69168;42.708;23.286;2023-10-09T00:21:15;5.10;;;1.52;;
79697;SDS011;69168;42.708;23.286;2023-10-09T00:23:53;4.60;;;1.55;;
79697;SDS011;69168;42.708;23.286;2023-10-09T00:26:24;7.70;;;1.48;;
79697;SDS011;69168;42.708;23.286;2023-10-09T00:28:50;5.05;;;2.13;;
79697;SDS011;69168;42.708;23.286;2023-10-09T00:31:19;5.38;;;1.60;;
79697;SDS011;69168;42.708;23.286;2023-10-09T00:33:53;4.05;;;1.50;;
79697;SDS011;69168;42.708;23.286;2023-10-09T00:36:20;4.80;;;1.60;;
79697;SDS011;69168;42.708;23.286;2023-10-09T00:38:52;5.93;;;1.92;;
79697;SDS011;69168;42.708;23.286;2023-10-09T00:41:17;5.15;;;1.38;;
79697;SDS011;69168;42.708;23.286;2023-10-09T00:43:47;7.07;;;2.38;;
79697;SDS011;69168;42.708;23.286;2023-10-09T00:46:15;7.43;;;1.50;;
79697;SDS011;69168;42.708;23.286;2023-10-09T00:48:45;5.00;;;2.13;;
79697;SDS011;69168;42.708;23.286;2023-10-09T00:51:13;3.70;;;1.50;;
79697;SDS011;69168;42.708;23.286;2023-10-09T00:53:44;4.30;;;1.48;;
79697;SDS011;69168;42.708;23.286;2023-10-09T00:56:15;6.65;;;1.55;;
79697;SDS011;69168;42.708;23.286;2023-10-09T00:58:48;3.17;;;1.55;;
79697;SDS011;69168;42.708;23.286;2023-10-09T01:01:21;3.58;;;1.60;;
79697;SDS011;69168;42.708;23.286;2023-10-09T01:06:44;4.30;;;1.80;;
79697;SDS011;69168;42.708;23.286;2023-10-09T01:09:29;2.10;;;1.30;;
79697;SDS011;69168;42.708;23.286;2023-10-09T01:12:01;3.70;;;1.40;;
79697;SDS011;69168;42.708;23.286;2023-10-09T01:14:26;5.47;;;1.60;;
79697;SDS011;69168;42.708;23.286;2023-10-09T01:16:52;4.00;;;1.65;;
79697;SDS011;69168;42.708;23.286;2023-10-09T01:19:19;1.25;;;1.15;;
79697;SDS011;69168;42.708;23.286;2023-10-09T01:21:49;2.83;;;1.35;;
79697;SDS011;69168;42.708;23.286;2023-10-09T01:24:15;4.60;;;1.80;;
79697;SDS011;69168;42.708;23.286;2023-10-09T01:26:42;3.72;;;1.25;;
79697;SDS011;69168;42.708;23.286;2023-10-09T01:29:20;4.30;;;1.35;;
79697;SDS011;69168;42.708;23.286;2023-10-09T01:31:50;5.72;;;1.38;;
79697;SDS011;69168;42.708;23.286;2023-10-09T01:37:15;7.68;;;1.38;;
79697;SDS011;69168;42.708;23.286;2023-10-09T01:39:51;2.88;;;1.30;;
79697;SDS011;69168;42.708;23.286;2023-10-09T01:42:18;2.83;;;1.25;;
79697;SDS011;69168;42.708;23.286;2023-10-09T01:44:59;4.53;;;1.33;;
79697;SDS011;69168;42.708;23.286;2023-10-09T01:47:51;3.85;;;1.40;;
79697;SDS011;69168;42.708;23.286;2023-10-09T01:50:19;2.35;;;1.20;;
79697;SDS011;69168;42.708;23.286;2023-10-09T01:52:47;4.05;;;1.20;;
79697;SDS011;69168;42.708;23.286;2023-10-09T01:55:12;5.78;;;0.82;;
79697;SDS011;69168;42.708;23.286;2023-10-09T01:57:54;5.63;;;1.05;;
79697;SDS011;69168;42.708;23.286;2023-10-09T02:00:23;4.43;;;1.33;;
79697;SDS011;69168;42.708;23.286;2023-10-09T02:02:50;4.88;;;1.30;;
79697;SDS011;69168;42.708;23.286;2023-10-09T02:05:15;3.33;;;1.40;;
79697;SDS011;69168;42.708;23.286;2023-10-09T02:07:42;3.55;;;1.20;;
79697;SDS011;69168;42.708;23.286;2023-10-09T02:10:16;3.50;;;1.40;;
79697;SDS011;69168;42.708;23.286;2023-10-09T02:12:48;5.72;;;1.33;;
79697;SDS011;69168;42.708;23.286;2023-10-09T02:15:19;3.58;;;1.20;;
79697;SDS011;69168;42.708;23.286;2023-10-09T02:18:04;4.85;;;1.42;;
79697;SDS011;69168;42.708;23.286;2023-10-09T02:20:42;4.28;;;1.35;;
79697;SDS011;69168;42.708;23.286;2023-10-09T02:23:10;2.92;;;1.25;;
79697;SDS011;69168;42.708;23.286;2023-10-09T02:25:38;2.83;;;1.30;;
79697;SDS011;69168;42.708;23.286;2023-10-09T02:28:08;3.20;;;1.02;;
79697;SDS011;69168;42.708;23.286;2023-10-09T02:30:34;2.25;;;0.93;;
79697;SDS011;69168;42.708;23.286;2023-10-09T02:32:59;2.67;;;1.30;;
79697;SDS011;69168;42.708;23.286;2023-10-09T02:35:34;5.05;;;1.35;;
79697;SDS011;69168;42.708;23.286;2023-10-09T02:38:03;3.47;;;1.23;;
79697;SDS011;69168;42.708;23.286;2023-10-09T02:40:34;3.25;;;1.10;;
79697;SDS011;69168;42.708;23.286;2023-10-09T02:43:07;1.77;;;1.17;;
79697;SDS011;69168;42.708;23.286;2023-10-09T02:45:37;4.13;;;1.02;;
79697;SDS011;69168;42.708;23.286;2023-10-09T02:48:15;3.60;;;1.35;;
79697;SDS011;69168;42.708;23.286;2023-10-09T02:50:44;4.07;;;1.63;;
79697;SDS011;69168;42.708;23.286;2023-10-09T02:53:10;5.80;;;1.15;;
79697;SDS011;69168;42.708;23.286;2023-10-09T02:55:43;3.15;;;1.25;;
79697;SDS011;69168;42.708;23.286;2023-10-09T02:58:18;2.03;;;1.00;;
79697;SDS011;69168;42.708;23.286;2023-10-09T03:00:46;8.75;;;1.50;;
79697;SDS011;69168;42.708;23.286;2023-10-09T03:03:13;1.63;;;1.08;;
79697;SDS011;69168;42.708;23.286;2023-10-09T03:05:43;3.83;;;1.10;;
79697;SDS011;69168;42.708;23.286;2023-10-09T03:08:09;1.77;;;1.38;;
79697;SDS011;69168;42.708;23.286;2023-10-09T03:10:37;3.03;;;1.40;;
79697;SDS011;69168;42.708;23.286;2023-10-09T03:13:04;2.83;;;1.42;;
79697;SDS011;69168;42.708;23.286;2023-10-09T03:18:01;3.33;;;0.95;;
79697;SDS011;69168;42.708;23.286;2023-10-09T03:20:29;5.97;;;1.15;;
79697;SDS011;69168;42.708;23.286;2023-10-09T03:22:55;1.73;;;1.05;;
79697;SDS011;69168;42.708;23.286;2023-10-09T03:27:50;2.55;;;1.10;;
79697;SDS011;69168;42.708;23.286;2023-10-09T03:30:18;1.40;;;1.00;;
79697;SDS011;69168;42.708;23.286;2023-10-09T03:32:53;3.45;;;1.00;;
79697;SDS011;69168;42.708;23.286;2023-10-09T03:35:19;3.13;;;1.00;;
79697;SDS011;69168;42.708;23.286;2023-10-09T03:37:53;4.45;;;0.82;;
79697;SDS011;69168;42.708;23.286;2023-10-09T03:40:22;5.55;;;1.25;;
79697;SDS011;69168;42.708;23.286;2023-10-09T03:42:48;3.00;;;1.10;;
79697;SDS011;69168;42.708;23.286;2023-10-09T03:45:14;2.28;;;1.20;;
79697;SDS011;69168;42.708;23.286;2023-10-09T03:47:53;2.08;;;1.02;;
79697;SDS011;69168;42.708;23.286;2023-10-09T03:50:41;5.15;;;1.10;;
79697;SDS011;69168;42.708;23.286;2023-10-09T03:53:08;3.20;;;1.10;;
79697;SDS011;69168;42.708;23.286;2023-10-09T03:55:37;3.20;;;1.05;;
79697;SDS011;69168;42.708;23.286;2023-10-09T03:58:06;4.05;;;1.35;;
79697;SDS011;69168;42.708;23.286;2023-10-09T04:00:32;2.92;;;0.80;;
79697;SDS011;69168;42.708;23.286;2023-10-09T04:03:09;1.48;;;0.90;;
79697;SDS011;69168;42.708;23.286;2023-10-09T04:05:36;2.10;;;1.27;;
79697;SDS011;69168;42.708;23.286;2023-10-09T04:08:02;2.42;;;0.90;;
79697;SDS011;69168;42.708;23.286;2023-10-09T04:10:37;6.03;;;2.65;;
79697;SDS011;69168;42.708;23.286;2023-10-09T04:13:12;3.30;;;0.90;;
79697;SDS011;69168;42.708;23.286;2023-10-09T04:15:42;1.70;;;0.70;;
79697;SDS011;69168;42.708;23.286;2023-10-09T04:18:08;2.00;;;0.70;;
79697;SDS011;69168;42.708;23.286;2023-10-09T04:20:40;4.07;;;0.82;;
79697;SDS011;69168;42.708;23.286;2023-10-09T04:23:28;2.38;;;1.15;;
79697;SDS011;69168;42.708;23.286;2023-10-09T04:26:01;1.58;;;0.90;;
79697;SDS011;69168;42.708;23.286;2023-10-09T04:28:36;3.38;;;1.27;;
79697;SDS011;69168;42.708;23.286;2023-10-09T04:31:02;2.40;;;1.00;;
79697;SDS011;69168;42.708;23.286;2023-10-09T04:33:31;3.58;;;1.10;;
79697;SDS011;69168;42.708;23.286;2023-10-09T04:38:47;3.40;;;1.00;;
79697;SDS011;69168;42.708;23.286;2023-10-09T04:41:28;1.75;;;0.90;;
79697;SDS011;69168;42.708;23.286;2023-10-09T04:43:58;4.80;;;1.02;;
79697;SDS011;69168;42.708;23.286;2023-10-09T04:46:50;4.13;;;1.85;;
79697;SDS011;69168;42.708;23.286;2023-10-09T04:49:35;3.95;;;1.17;;
79697;SDS011;69168;42.708;23.286;2023-10-09T04:52:13;5.40;;;1.30;;
79697;SDS011;69168;42.708;23.286;2023-10-09T04:54:50;3.80;;;1.25;;
79697;SDS011;69168;42.708;23.286;2023-10-09T04:57:37;3.75;;;0.80;;
79697;SDS011;69168;42.708;23.286;2023-10-09T05:00:08;2.22;;;1.05;;
79697;SDS011;69168;42.708;23.286;2023-10-09T05:02:49;4.15;;;1.20;;
79697;SDS011;69168;42.708;23.286;2023-10-09T05:05:22;2.78;;;0.95;;
79697;SDS011;69168;42.708;23.286;2023-10-09T05:08:09;3.20;;;1.35;;
79697;SDS011;69168;42.708;23.286;2023-10-09T05:10:57;4.75;;;1.30;;
79697;SDS011;69168;42.708;23.286;2023-10-09T05:13:33;2.85;;;1.38;;
79697;SDS011;69168;42.708;23.286;2023-10-09T05:21:01;1.83;;;1.30;;
79697;SDS011;69168;42.708;23.286;2023-10-09T05:23:46;7.55;;;1.33;;
79697;SDS011;69168;42.708;23.286;2023-10-09T05:26:34;5.18;;;1.00;;
79697;SDS011;69168;42.708;23.286;2023-10-09T05:29:13;4.43;;;1.00;;
79697;SDS011;69168;42.708;23.286;2023-10-09T05:31:51;3.15;;;1.05;;
79697;SDS011;69168;42.708;23.286;2023-10-09T05:34:36;2.42;;;1.13;;
79697;SDS011;69168;42.708;23.286;2023-10-09T05:37:20;1.52;;;1.30;;
79697;SDS011;69168;42.708;23.286;2023-10-09T05:39:51;3.85;;;1.77;;
79697;SDS011;69168;42.708;23.286;2023-10-09T05:42:27;3.10;;;1.10;;
79697;SDS011;69168;42.708;23.286;2023-10-09T05:45:07;2.28;;;0.80;;
79697;SDS011;69168;42.708;23.286;2023-10-09T05:47:42;1.40;;;1.05;;
79697;SDS011;69168;42.708;23.286;2023-10-09T05:50:24;2.25;;;1.20;;
79697;SDS011;69168;42.708;23.286;2023-10-09T05:52:53;3.25;;;1.10;;
79697;SDS011;69168;42.708;23.286;2023-10-09T05:55:23;2.30;;;1.10;;
79697;SDS011;69168;42.708;23.286;2023-10-09T05:57:52;3.25;;;0.77;;
79697;SDS011;69168;42.708;23.286;2023-10-09T06:00:39;5.22;;;1.23;;
79697;SDS011;69168;42.708;23.286;2023-10-09T06:03:24;3.42;;;1.05;;
79697;SDS011;69168;42.708;23.286;2023-10-09T06:06:10;2.53;;;0.88;;
79697;SDS011;69168;42.708;23.286;2023-10-09T06:08:56;1.92;;;0.93;;
79697;SDS011;69168;42.708;23.286;2023-10-09T06:11:40;2.63;;;1.00;;
79697;SDS011;69168;42.708;23.286;2023-10-09T06:14:15;3.08;;;1.38;;
79697;SDS011;69168;42.708;23.286;2023-10-09T06:16:50;3.50;;;1.73;;
79697;SDS011;69168;42.708;23.286;2023-10-09T06:19:40;2.17;;;1.00;;
79697;SDS011;69168;42.708;23.286;2023-10-09T06:22:08;1.10;;;0.73;;
79697;SDS011;69168;42.708;23.286;2023-10-09T06:24:40;3.05;;;1.10;;
79697;SDS011;69168;42.708;23.286;2023-10-09T06:27:07;1.67;;;0.75;;
79697;SDS011;69168;42.708;23.286;2023-10-09T06:29:49;11.98;;;1.65;;
79697;SDS011;69168;42.708;23.286;2023-10-09T06:32:14;1.17;;;0.82;;
79697;SDS011;69168;42.708;23.286;2023-10-09T06:34:43;3.63;;;1.00;;
79697;SDS011;69168;42.708;23.286;2023-10-09T06:37:21;2.78;;;1.30;;
79697;SDS011;69168;42.708;23.286;2023-10-09T06:39:53;3.03;;;0.80;;
79697;SDS011;69168;42.708;23.286;2023-10-09T06:42:20;2.63;;;1.15;;
79697;SDS011;69168;42.708;23.286;2023-10-09T06:45:15;1.27;;;0.88;;
79697;SDS011;69168;42.708;23.286;2023-10-09T06:47:49;1.58;;;0.90;;
79697;SDS011;69168;42.708;23.286;2023-10-09T06:50:24;1.75;;;0.90;;
79697;SDS011;69168;42.708;23.286;2023-10-09T06:52:50;2.75;;;1.20;;
79697;SDS011;69168;42.708;23.286;2023-10-09T06:55:22;2.15;;;1.00;;
79697;SDS011;69168;42.708;23.286;2023-10-09T06:58:02;2.45;;;1.20;;
79697;SDS011;69168;42.708;23.286;2023-10-09T07:00:38;4.70;;;1.00;;
79697;SDS011;69168;42.708;23.286;2023-10-09T07:03:39;1.15;;;0.82;;
79697;SDS011;69168;42.708;23.286;2023-10-09T07:06:25;1.33;;;0.95;;
79697;SDS011;69168;42.708;23.286;2023-10-09T07:09:00;1.67;;;1.08;;
79697;SDS011;69168;42.708;23.286;2023-10-09T07:11:34;2.17;;;1.00;;
79697;SDS011;69168;42.708;23.286;2023-10-09T07:14:13;1.42;;;1.13;;
79697;SDS011;69168;42.708;23.286;2023-10-09T07:16:57;1.27;;;1.02;;
79697;SDS011;69168;42.708;23.286;2023-10-09T07:19:26;3.63;;;2.20;;
79697;SDS011;69168;42.708;23.286;2023-10-09T07:22:07;1.52;;;1.00;;
79697;SDS011;69168;42.708;23.286;2023-10-09T07:25:01;2.25;;;1.05;;
79697;SDS011;69168;42.708;23.286;2023-10-09T07:27:57;2.70;;;1.13;;
79697;SDS011;69168;42.708;23.286;2023-10-09T07:30:25;3.03;;;1.55;;
79697;SDS011;69168;42.708;23.286;2023-10-09T07:33:06;2.50;;;1.13;;
79697;SDS011;69168;42.708;23.286;2023-10-09T07:35:36;2.22;;;1.10;;
79697;SDS011;69168;42.708;23.286;2023-10-09T07:38:12;3.28;;;1.88;;
79697;SDS011;69168;42.708;23.286;2023-10-09T07:40:44;2.72;;;1.00;;
79697;SDS011;69168;42.708;23.286;2023-10-09T07:43:41;1.30;;;0.85;;
79697;SDS011;69168;42.708;23.286;2023-10-09T07:46:11;3.50;;;1.00;;
79697;SDS011;69168;42.708;23.286;2023-10-09T07:48:58;2.22;;;1.35;;
79697;SDS011;69168;42.708;23.286;2023-10-09T07:51:34;0.98;;;0.60;;
79697;SDS011;69168;42.708;23.286;2023-10-09T07:54:01;4.88;;;0.75;;
79697;SDS011;69168;42.708;23.286;2023-10-09T07:56:36;2.33;;;0.82;;
79697;SDS011;69168;42.708;23.286;2023-10-09T07:59:11;4.30;;;1.08;;
79697;SDS011;69168;42.708;23.286;2023-10-09T08:04:17;2.53;;;1.10;;
79697;SDS011;69168;42.708;23.286;2023-10-09T08:07:05;1.05;;;0.80;;
79697;SDS011;69168;42.708;23.286;2023-10-09T08:09:32;2.05;;;1.10;;
79697;SDS011;69168;42.708;23.286;2023-10-09T08:12:16;2.53;;;0.90;;
79697;SDS011;69168;42.708;23.286;2023-10-09T08:15:04;1.23;;;0.70;;
79697;SDS011;69168;42.708;23.286;2023-10-09T08:17:50;1.50;;;0.90;;
79697;SDS011;69168;42.708;23.286;2023-10-09T08:20:37;2.35;;;0.90;;
79697;SDS011;69168;42.708;23.286;2023-10-09T08:23:22;1.58;;;0.80;;
79697;SDS011;69168;42.708;23.286;2023-10-09T08:26:08;1.95;;;0.88;;
79697;SDS011;69168;42.708;23.286;2023-10-09T08:28:40;3.20;;;0.80;;
79697;SDS011;69168;42.708;23.286;2023-10-09T08:34:02;0.75;;;0.70;;
79697;SDS011;69168;42.708;23.286;2023-10-09T08:36:29;1.77;;;0.90;;
79697;SDS011;69168;42.708;23.286;2023-10-09T08:39:01;0.90;;;0.80;;
79697;SDS011;69168;42.708;23.286;2023-10-09T08:41:48;1.50;;;0.90;;
79697;SDS011;69168;42.708;23.286;2023-10-09T08:44:14;2.20;;;1.00;;
79697;SDS011;69168;42.708;23.286;2023-10-09T08:46:47;3.28;;;1.65;;
79697;SDS011;69168;42.708;23.286;2023-10-09T08:49:15;2.33;;;0.93;;
79697;SDS011;69168;42.708;23.286;2023-10-09T08:51:42;2.08;;;1.40;;
79697;SDS011;69168;42.708;23.286;2023-10-09T08:54:08;1.52;;;0.82;;
79697;SDS011;69168;42.708;23.286;2023-10-09T08:56:36;3.20;;;0.60;;
79697;SDS011;69168;42.708;23.286;2023-10-09T08:59:05;1.85;;;1.05;;
79697;SDS011;69168;42.708;23.286;2023-10-09T09:01:30;1.83;;;0.80;;
79697;SDS011;69168;42.708;23.286;2023-10-09T09:03:59;5.85;;;1.10;;
79697;SDS011;69168;42.708;23.286;2023-10-09T09:06:27;1.60;;;0.70;;
79697;SDS011;69168;42.708;23.286;2023-10-09T09:09:09;3.78;;;0.80;;
79697;SDS011;69168;42.708;23.286;2023-10-09T09:11:42;4.00;;;1.20;;
79697;SDS011;69168;42.708;23.286;2023-10-09T09:14:14;2.10;;;1.10;;
79697;SDS011;69168;42.708;23.286;2023-10-09T09:16:44;1.40;;;0.98;;
79697;SDS011;69168;42.708;23.286;2023-10-09T09:19:13;6.38;;;1.05;;
79697;SDS011;69168;42.708;23.286;2023-10-09T09:21:52;3.28;;;0.85;;
79697;SDS011;69168;42.708;23.286;2023-10-09T09:24:24;1.10;;;0.90;;
79697;SDS011;69168;42.708;23.286;2023-10-09T09:26:50;1.52;;;1.00;;
79697;SDS011;69168;42.708;23.286;2023-10-09T09:34:47;1.92;;;0.88;;
79697;SDS011;69168;42.708;23.286;2023-10-09T09:37:23;5.03;;;1.60;;
79697;SDS011;69168;42.708;23.286;2023-10-09T09:40:08;3.92;;;1.58;;
79697;SDS011;69168;42.708;23.286;2023-10-09T09:42:52;2.10;;;0.75;;
79697;SDS011;69168;42.708;23.286;2023-10-09T09:45:30;2.33;;;1.00;;
79697;SDS011;69168;42.708;23.286;2023-10-09T09:48:13;1.63;;;0.90;;
79697;SDS011;69168;42.708;23.286;2023-10-09T09:50:41;3.38;;;1.00;;
79697;SDS011;69168;42.708;23.286;2023-10-09T09:53:14;2.42;;;0.90;;
79697;SDS011;69168;42.708;23.286;2023-10-09T09:55:49;2.50;;;0.85;;
79697;SDS011;69168;42.708;23.286;2023-10-09T09:58:22;5.35;;;1.30;;
79697;SDS011;69168;42.708;23.286;2023-10-09T10:01:00;3.42;;;0.90;;
79697;SDS011;69168;42.708;23.286;2023-10-09T10:03:50;2.47;;;0.80;;
79697;SDS011;69168;42.708;23.286;2023-10-09T10:06:21;1.20;;;0.85;;
79697;SDS011;69168;42.708;23.286;2023-10-09T10:08:51;2.80;;;1.10;;
79697;SDS011;69168;42.708;23.286;2023-10-09T10:14:17;3.47;;;1.23;;
79697;SDS011;69168;42.708;23.286;2023-10-09T10:17:08;5.05;;;1.90;;
79697;SDS011;69168;42.708;23.286;2023-10-09T10:22:42;3.30;;;1.20;;
79697;SDS011;69168;42.708;23.286;2023-10-09T10:25:34;2.03;;;1.40;;
79697;SDS011;69168;42.708;23.286;2023-10-09T10:28:22;3.40;;;1.25;;
79697;SDS011;69168;42.708;23.286;2023-10-09T10:31:07;1.90;;;1.30;;
79697;SDS011;69168;42.708;23.286;2023-10-09T10:36:21;2.65;;;1.58;;
79697;SDS011;69168;42.708;23.286;2023-10-09T10:39:01;3.90;;;2.30;;
79697;SDS011;69168;42.708;23.286;2023-10-09T10:41:29;2.38;;;1.33;;
79697;SDS011;69168;42.708;23.286;2023-10-09T10:44:01;2.63;;;1.85;;
79697;SDS011;69168;42.708;23.286;2023-10-09T10:46:47;5.50;;;3.90;;
79697;SDS011;69168;42.708;23.286;2023-10-09T10:49:18;2.58;;;1.90;;
79697;SDS011;69168;42.708;23.286;2023-10-09T10:51:48;4.78;;;2.10;;
79697;SDS011;69168;42.708;23.286;2023-10-09T10:54:24;4.47;;;1.80;;
79697;SDS011;69168;42.708;23.286;2023-10-09T10:57:19;2.92;;;2.30;;
79697;SDS011;69168;42.708;23.286;2023-10-09T11:00:09;5.50;;;3.08;;
79697;SDS011;69168;42.708;23.286;2023-10-09T11:02:54;4.53;;;3.13;;
79697;SDS011;69168;42.708;23.286;2023-10-09T11:05:37;5.85;;;3.30;;
79697;SDS011;69168;42.708;23.286;2023-10-09T11:08:08;6.25;;;3.22;;
79697;SDS011;69168;42.708;23.286;2023-10-09T11:10:34;4.05;;;2.97;;
79697;SDS011;69168;42.708;23.286;2023-10-09T11:13:00;9.63;;;6.28;;
79697;SDS011;69168;42.708;23.286;2023-10-09T11:15:36;7.45;;;4.40;;
79697;SDS011;69168;42.708;23.286;2023-10-09T11:18:12;7.75;;;3.70;;
79697;SDS011;69168;42.708;23.286;2023-10-09T11:23:29;4.68;;;3.22;;
79697;SDS011;69168;42.708;23.286;2023-10-09T11:26:03;3.63;;;1.80;;
79697;SDS011;69168;42.708;23.286;2023-10-09T11:29:07;1.63;;;1.17;;
79697;SDS011;69168;42.708;23.286;2023-10-09T11:32:25;2.20;;;1.33;;
79697;SDS011;69168;42.708;23.286;2023-10-09T11:34:34;3.63;;;1.25;;
79697;SDS011;69168;42.708;23.286;2023-10-09T11:37:02;4.03;;;2.10;;
79697;SDS011;69168;42.708;23.286;2023-10-09T11:39:36;3.80;;;2.35;;
79697;SDS011;69168;42.708;23.286;2023-10-09T11:42:18;2.55;;;1.40;;
79697;SDS011;69168;42.708;23.286;2023-10-09T11:45:01;4.70;;;2.97;;
79697;SDS011;69168;42.708;23.286;2023-10-09T11:47:46;3.15;;;2.15;;
79697;SDS011;69168;42.708;23.286;2023-10-09T11:50:44;3.38;;;1.67;;
79697;SDS011;69168;42.708;23.286;2023-10-09T11:53:19;6.30;;;2.90;;
79697;SDS011;69168;42.708;23.286;2023-10-09T11:55:48;1.80;;;1.60;;
79697;SDS011;69168;42.708;23.286;2023-10-09T11:58:16;3.25;;;1.48;;
79697;SDS011;69168;42.708;23.286;2023-10-09T12:00:54;4.25;;;1.27;;
79697;SDS011;69168;42.708;23.286;2023-10-09T12:03:30;1.88;;;1.60;;
79697;SDS011;69168;42.708;23.286;2023-10-09T12:05:57;1.73;;;0.90;;
79697;SDS011;69168;42.708;23.286;2023-10-09T12:08:37;3.60;;;2.15;;
79697;SDS011;69168;42.708;23.286;2023-10-09T12:11:06;4.50;;;2.88;;
79697;SDS011;69168;42.708;23.286;2023-10-09T12:13:36;3.00;;;1.58;;
79697;SDS011;69168;42.708;23.286;2023-10-09T12:16:03;3.10;;;1.42;;
79697;SDS011;69168;42.708;23.286;2023-10-09T12:18:35;2.83;;;1.50;;
79697;SDS011;69168;42.708;23.286;2023-10-09T12:21:04;2.10;;;1.60;;
79697;SDS011;69168;42.708;23.286;2023-10-09T12:23:31;4.60;;;1.63;;
79697;SDS011;69168;42.708;23.286;2023-10-09T12:26:03;1.52;;;1.17;;
79697;SDS011;69168;42.708;23.286;2023-10-09T12:28:29;5.72;;;1.65;;
79697;SDS011;69168;42.708;23.286;2023-10-09T12:30:58;4.60;;;1.50;;
79697;SDS011;69168;42.708;23.286;2023-10-09T12:33:26;1.60;;;1.10;;
79697;SDS011;69168;42.708;23.286;2023-10-09T12:35:53;1.45;;;1.05;;
79697;SDS011;69168;42.708;23.286;2023-10-09T12:38:25;1.48;;;1.00;;
79697;SDS011;69168;42.708;23.286;2023-10-09T12:41:03;1.58;;;1.10;;
79697;SDS011;69168;42.708;23.286;2023-10-09T12:43:50;3.60;;;1.40;;
79697;SDS011;69168;42.708;23.286;2023-10-09T12:46:17;1.63;;;1.20;;
79697;SDS011;69168;42.708;23.286;2023-10-09T12:48:44;3.17;;;1.00;;
79697;SDS011;69168;42.708;23.286;2023-10-09T12:51:13;2.55;;;1.40;;
79697;SDS011;69168;42.708;23.286;2023-10-09T12:53:43;1.30;;;0.95;;
79697;SDS011;69168;42.708;23.286;2023-10-09T12:56:09;1.45;;;1.17;;
79697;SDS011;69168;42.708;23.286;2023-10-09T12:58:37;2.70;;;1.02;;
79697;SDS011;69168;42.708;23.286;2023-10-09T13:01:03;1.73;;;1.25;;
79697;SDS011;69168;42.708;23.286;2023-10-09T13:03:36;5.85;;;1.45;;
79697;SDS011;69168;42.708;23.286;2023-10-09T13:06:05;1.75;;;1.00;;
79697;SDS011;69168;42.708;23.286;2023-10-09T13:08:37;2.20;;;1.40;;
79697;SDS011;69168;42.708;23.286;2023-10-09T13:11:06;3.10;;;1.23;;
79697;SDS011;69168;42.708;23.286;2023-10-09T13:13:36;3.13;;;1.35;;
79697;SDS011;69168;42.708;23.286;2023-10-09T13:16:15;1.63;;;1.20;;
79697;SDS011;69168;42.708;23.286;2023-10-09T13:18:56;3.63;;;1.40;;
79697;SDS011;69168;42.708;23.286;2023-10-09T13:21:25;6.95;;;1.38;;
79697;SDS011;69168;42.708;23.286;2023-10-09T13:23:51;3.47;;;1.63;;
79697;SDS011;69168;42.708;23.286;2023-10-09T13:26:19;2.47;;;1.10;;
79697;SDS011;69168;42.708;23.286;2023-10-09T13:28:57;1.50;;;1.10;;
79697;SDS011;69168;42.708;23.286;2023-10-09T13:31:24;4.03;;;1.30;;
79697;SDS011;69168;42.708;23.286;2023-10-09T13:33:54;2.70;;;1.48;;
79697;SDS011;69168;42.708;23.286;2023-10-09T13:36:21;2.50;;;1.33;;
79697;SDS011;69168;42.708;23.286;2023-10-09T13:38:54;1.52;;;1.00;;
79697;SDS011;69168;42.708;23.286;2023-10-09T13:41:21;2.90;;;1.30;;
79697;SDS011;69168;42.708;23.286;2023-10-09T13:43:47;1.73;;;1.40;;
79697;SDS011;69168;42.708;23.286;2023-10-09T13:46:16;3.30;;;1.50;;
79697;SDS011;69168;42.708;23.286;2023-10-09T13:48:42;4.03;;;1.60;;
79697;SDS011;69168;42.708;23.286;2023-10-09T13:51:10;4.22;;;1.83;;
79697;SDS011;69168;42.708;23.286;2023-10-09T13:53:42;1.25;;;1.10;;
79697;SDS011;69168;42.708;23.286;2023-10-09T13:56:15;2.47;;;1.70;;
79697;SDS011;69168;42.708;23.286;2023-10-09T13:58:49;3.17;;;1.40;;
79697;SDS011;69168;42.708;23.286;2023-10-09T14:01:16;2.58;;;1.60;;
79697;SDS011;69168;42.708;23.286;2023-10-09T14:03:58;4.03;;;1.40;;
79697;SDS011;69168;42.708;23.286;2023-10-09T14:06:25;2.90;;;1.70;;
79697;SDS011;69168;42.708;23.286;2023-10-09T14:08:58;5.20;;;2.15;;
79697;SDS011;69168;42.708;23.286;2023-10-09T14:11:25;3.22;;;1.80;;
79697;SDS011;69168;42.708;23.286;2023-10-09T14:13:52;2.60;;;2.00;;
79697;SDS011;69168;42.708;23.286;2023-10-09T14:16:17;3.25;;;1.67;;
79697;SDS011;69168;42.708;23.286;2023-10-09T14:18:52;3.25;;;1.50;;
79697;SDS011;69168;42.708;23.286;2023-10-09T14:21:32;5.95;;;1.65;;
79697;SDS011;69168;42.708;23.286;2023-10-09T14:24:02;4.20;;;1.77;;
79697;SDS011;69168;42.708;23.286;2023-10-09T14:26:28;3.35;;;2.03;;
79697;SDS011;69168;42.708;23.286;2023-10-09T14:28:54;5.10;;;2.17;;
79697;SDS011;69168;42.708;23.286;2023-10-09T14:31:25;4.72;;;2.20;;
79697;SDS011;69168;42.708;23.286;2023-10-09T14:33:53;4.35;;;2.20;;
79697;SDS011;69168;42.708;23.286;2023-10-09T14:36:22;5.80;;;2.03;;
79697;SDS011;69168;42.708;23.286;2023-10-09T14:38:49;4.65;;;1.98;;
79697;SDS011;69168;42.708;23.286;2023-10-09T14:41:19;5.53;;;1.92;;
79697;SDS011;69168;42.708;23.286;2023-10-09T14:43:48;5.80;;;1.80;;
79697;SDS011;69168;42.708;23.286;2023-10-09T14:46:14;5.13;;;2.38;;
79697;SDS011;69168;42.708;23.286;2023-10-09T14:48:40;4.05;;;1.95;;
79697;SDS011;69168;42.708;23.286;2023-10-09T14:51:06;3.45;;;1.90;;
79697;SDS011;69168;42.708;23.286;2023-10-09T14:53:35;5.45;;;2.03;;
79697;SDS011;69168;42.708;23.286;2023-10-09T14:56:00;5.45;;;2.40;;
79697;SDS011;69168;42.708;23.286;2023-10-09T14:58:28;5.75;;;2.65;;
79697;SDS011;69168;42.708;23.286;2023-10-09T15:00:55;5.93;;;2.42;;
79697;SDS011;69168;42.708;23.286;2023-10-09T15:03:22;3.50;;;2.20;;
79697;SDS011;69168;42.708;23.286;2023-10-09T15:05:51;4.85;;;2.17;;
79697;SDS011;69168;42.708;23.286;2023-10-09T15:08:16;7.82;;;2.45;;
79697;SDS011;69168;42.708;23.286;2023-10-09T15:10:49;3.33;;;2.00;;
79697;SDS011;69168;42.708;23.286;2023-10-09T15:13:22;9.73;;;4.95;;
79697;SDS011;69168;42.708;23.286;2023-10-09T15:15:53;5.75;;;1.83;;
79697;SDS011;69168;42.708;23.286;2023-10-09T15:18:20;6.05;;;2.13;;
79697;SDS011;69168;42.708;23.286;2023-10-09T15:20:50;6.80;;;2.28;;
79697;SDS011;69168;42.708;23.286;2023-10-09T15:23:16;6.60;;;2.05;;
79697;SDS011;69168;42.708;23.286;2023-10-09T15:25:45;4.88;;;1.95;;
79697;SDS011;69168;42.708;23.286;2023-10-09T15:28:14;6.85;;;2.22;;
79697;SDS011;69168;42.708;23.286;2023-10-09T15:33:07;6.28;;;2.58;;
79697;SDS011;69168;42.708;23.286;2023-10-09T15:35:35;4.53;;;2.80;;
79697;SDS011;69168;42.708;23.286;2023-10-09T15:38:02;7.57;;;2.58;;
79697;SDS011;69168;42.708;23.286;2023-10-09T15:40:30;5.45;;;2.55;;
79697;SDS011;69168;42.708;23.286;2023-10-09T15:43:00;4.93;;;2.90;;
79697;SDS011;69168;42.708;23.286;2023-10-09T15:45:26;5.50;;;3.00;;
79697;SDS011;69168;42.708;23.286;2023-10-09T15:47:53;6.78;;;2.83;;
79697;SDS011;69168;42.708;23.286;2023-10-09T15:50:20;7.93;;;2.55;;
79697;SDS011;69168;42.708;23.286;2023-10-09T15:52:49;5.32;;;2.33;;